Time;durP1;ratioP1;P1;durP2;ratioP2;P2;SDS_P1;SDS_P2;PMS_P1;PMS_P2;Temp;Humidity;BMP_temperature;BMP_pressure;BME280_temperature;BME280_humidity;BME280_pressure;Samples;Min_cycle;Max_cycle;Signal;HPM_P1;HPM_P2
2019/11/12 00:02:17;;;;;;;2.87;2.63;;;;;;;20.01;48.97;99667.45;;;;-53
2019/11/12 00:05:17;;;;;;;2.93;2.65;;;;;;;20.00;48.93;99665.33;;;;-52
2019/11/12 00:08:18;;;;;;;2.66;2.46;;;;;;;19.99;48.86;99667.66;;;;-52
2019/11/12 00:11:17;;;;;;;2.83;2.63;;;;;;;19.99;49.00;99675.09;;;;-52
2019/11/12 00:14:17;;;;;;;2.60;2.40;;;;;;;19.96;48.92;99674.59;;;;-54
2019/11/12 00:17:18;;;;;;;3.13;2.78;;;;;;;19.96;49.04;99675.07;;;;-54
2019/11/12 00:20:17;;;;;;;2.80;2.60;;;;;;;19.95;49.02;99678.09;;;;-53
2019/11/12 00:23:17;;;;;;;2.69;2.49;;;;;;;19.94;48.99;99678.30;;;;-52
2019/11/12 00:26:17;;;;;;;2.61;2.41;;;;;;;19.94;49.02;99676.25;;;;-52
2019/11/12 00:29:17;;;;;;;2.73;2.53;;;;;;;19.91;49.00;99676.70;;;;-52
2019/11/12 00:35:17;;;;;;;2.66;2.46;;;;;;;19.88;49.12;99671.68;;;;-52
2019/11/12 00:38:18;;;;;;;3.34;2.58;;;;;;;19.88;49.10;99676.77;;;;-53
2019/11/12 00:41:17;;;;;;;2.68;2.48;;;;;;;19.87;49.08;99680.77;;;;-52
2019/11/12 00:44:17;;;;;;;2.63;2.43;;;;;;;19.86;49.07;99684.66;;;;-51
2019/11/12 00:47:18;;;;;;;2.50;2.30;;;;;;;19.85;49.11;99684.73;;;;-52
2019/11/12 00:50:17;;;;;;;2.77;2.57;;;;;;;19.83;49.18;99687.01;;;;-52
2019/11/12 00:53:17;;;;;;;2.69;2.48;;;;;;;19.83;49.09;99697.33;;;;-52
2019/11/12 00:56:18;;;;;;;2.78;2.45;;;;;;;19.82;49.03;99691.44;;;;-52
2019/11/12 00:59:17;;;;;;;2.73;2.53;;;;;;;19.81;49.09;99694.08;;;;-53
2019/11/12 01:02:17;;;;;;;3.05;2.60;;;;;;;19.80;49.07;99691.27;;;;-52
2019/11/12 01:05:17;;;;;;;2.70;2.50;;;;;;;19.80;49.09;99696.63;;;;-52
2019/11/12 01:08:17;;;;;;;2.70;2.47;;;;;;;19.78;49.09;99698.58;;;;-52
2019/11/12 01:11:17;;;;;;;2.95;2.69;;;;;;;19.78;49.05;99682.84;;;;-54
2019/11/12 01:14:18;;;;;;;2.75;2.53;;;;;;;19.78;49.18;99686.36;;;;-53
2019/11/12 01:17:18;;;;;;;2.60;2.40;;;;;;;19.77;49.12;99688.67;;;;-54
2019/11/12 01:20:17;;;;;;;2.76;2.56;;;;;;;19.76;49.11;99697.85;;;;-46
2019/11/12 01:23:17;;;;;;;2.77;2.57;;;;;;;19.75;49.14;99713.67;;;;-48
2019/11/12 01:26:17;;;;;;;2.60;2.40;;;;;;;19.74;49.13;99703.52;;;;-47
2019/11/12 01:29:17;;;;;;;2.67;2.47;;;;;;;19.73;49.17;99701.88;;;;-48
2019/11/12 01:32:36;;;;;;;2.70;2.50;;;;;;;19.72;49.20;99704.86;;;;-47
2019/11/12 01:35:17;;;;;;;2.64;2.44;;;;;;;19.71;49.10;99698.06;;;;-47
2019/11/12 01:38:17;;;;;;;2.69;2.49;;;;;;;19.71;49.21;99702.15;;;;-48
2019/11/12 01:41:18;;;;;;;2.55;2.35;;;;;;;19.70;49.19;99701.08;;;;-48
2019/11/12 01:44:18;;;;;;;2.40;2.20;;;;;;;19.69;49.13;99702.83;;;;-48
2019/11/12 01:47:17;;;;;;;2.69;2.49;;;;;;;19.69;49.17;99702.92;;;;-48
2019/11/12 01:50:17;;;;;;;2.45;2.25;;;;;;;19.68;49.20;99712.95;;;;-48
2019/11/12 01:53:17;;;;;;;2.55;2.35;;;;;;;19.67;49.20;99708.89;;;;-48
2019/11/12 01:56:17;;;;;;;2.70;2.50;;;;;;;19.67;49.09;99719.34;;;;-48
2019/11/12 01:59:17;;;;;;;2.59;2.39;;;;;;;19.66;49.18;99727.72;;;;-48
2019/11/12 02:02:17;;;;;;;2.60;2.40;;;;;;;19.64;49.19;99726.15;;;;-48
2019/11/12 02:05:18;;;;;;;2.47;2.27;;;;;;;19.64;49.14;99724.71;;;;-47
2019/11/12 02:08:17;;;;;;;2.75;2.55;;;;;;;19.64;49.20;99723.61;;;;-48
2019/11/12 02:11:17;;;;;;;2.69;2.49;;;;;;;19.62;49.21;99723.81;;;;-48
2019/11/12 02:14:17;;;;;;;2.39;2.19;;;;;;;19.62;49.23;99721.30;;;;-48
2019/11/12 02:17:17;;;;;;;2.62;2.42;;;;;;;19.60;49.21;99719.56;;;;-48
2019/11/12 02:20:17;;;;;;;2.53;2.33;;;;;;;19.60;49.25;99718.12;;;;-48
2019/11/12 02:23:17;;;;;;;2.43;2.23;;;;;;;19.59;49.17;99719.63;;;;-48
2019/11/12 02:26:17;;;;;;;2.37;2.17;;;;;;;19.58;49.22;99717.14;;;;-48
2019/11/12 02:29:17;;;;;;;2.58;2.38;;;;;;;19.57;49.26;99713.03;;;;-47
2019/11/12 02:32:17;;;;;;;3.73;2.31;;;;;;;19.57;49.22;99719.46;;;;-48
2019/11/12 02:35:18;;;;;;;2.50;2.30;;;;;;;19.56;49.24;99715.91;;;;-47
2019/11/12 02:38:17;;;;;;;2.41;2.21;;;;;;;19.55;49.36;99713.03;;;;-47
2019/11/12 02:41:17;;;;;;;2.59;2.39;;;;;;;19.55;49.24;99714.04;;;;-48
2019/11/12 02:44:17;;;;;;;2.45;2.25;;;;;;;19.55;49.34;99715.88;;;;-48
2019/11/12 02:47:18;;;;;;;2.47;2.27;;;;;;;19.53;49.30;99714.64;;;;-48
2019/11/12 02:50:17;;;;;;;2.39;2.19;;;;;;;19.53;49.25;99718.77;;;;-48
2019/11/12 02:53:17;;;;;;;2.43;2.23;;;;;;;19.52;49.32;99722.58;;;;-48
2019/11/12 02:56:43;;;;;;;2.81;2.37;;;;;;;19.51;49.27;99716.35;;;;-47
2019/11/12 02:59:17;;;;;;;2.39;2.19;;;;;;;19.51;49.35;99717.52;;;;-48
2019/11/12 03:02:17;;;;;;;2.33;2.13;;;;;;;19.50;49.39;99714.98;;;;-47
2019/11/12 03:05:17;;;;;;;2.31;2.11;;;;;;;19.50;49.33;99717.06;;;;-47
2019/11/12 03:08:17;;;;;;;2.30;2.10;;;;;;;19.49;49.34;99717.89;;;;-48
2019/11/12 03:11:18;;;;;;;2.44;2.24;;;;;;;19.49;49.33;99712.10;;;;-48
2019/11/12 03:14:18;;;;;;;2.33;2.13;;;;;;;19.48;49.33;99709.22;;;;-47
2019/11/12 03:17:18;;;;;;;2.40;2.20;;;;;;;19.48;49.26;99712.34;;;;-48
2019/11/12 03:20:17;;;;;;;2.38;2.18;;;;;;;19.46;49.35;99716.69;;;;-48
2019/11/12 03:23:17;;;;;;;2.44;2.24;;;;;;;19.46;49.40;99720.38;;;;-48
2019/11/12 03:26:17;;;;;;;2.31;2.11;;;;;;;19.45;49.34;99716.76;;;;-48
2019/11/12 03:29:17;;;;;;;2.22;2.02;;;;;;;19.45;49.30;99716.42;;;;-48
2019/11/12 03:32:18;;;;;;;2.17;2.03;;;;;;;19.44;49.40;99720.91;;;;-48
2019/11/12 03:35:17;;;;;;;2.31;2.11;;;;;;;19.45;49.41;99724.27;;;;-46
2019/11/12 03:38:17;;;;;;;1.96;1.86;;;;;;;19.43;49.33;99717.44;;;;-47
2019/11/12 03:41:17;;;;;;;2.09;1.97;;;;;;;19.42;49.34;99719.48;;;;-48
2019/11/12 03:44:18;;;;;;;2.31;2.11;;;;;;;19.42;49.35;99722.48;;;;-47
2019/11/12 03:47:18;;;;;;;2.25;2.05;;;;;;;19.42;49.39;99723.77;;;;-48
2019/11/12 03:50:17;;;;;;;2.28;2.08;;;;;;;19.40;49.33;99718.84;;;;-47
2019/11/12 03:53:28;;;;;;;2.36;2.16;;;;;;;19.40;49.39;99723.36;;;;-46
2019/11/12 03:56:17;;;;;;;2.33;2.13;;;;;;;19.40;49.39;99723.09;;;;-46
2019/11/12 03:59:17;;;;;;;2.20;2.00;;;;;;;19.38;49.40;99721.82;;;;-48
2019/11/12 04:02:17;;;;;;;2.01;1.90;;;;;;;19.39;49.38;99722.59;;;;-47
2019/11/12 04:05:17;;;;;;;2.29;1.99;;;;;;;19.38;49.42;99722.96;;;;-48
2019/11/12 04:08:17;;;;;;;2.24;2.04;;;;;;;19.37;49.41;99725.17;;;;-48
2019/11/12 04:11:18;;;;;;;2.04;1.90;;;;;;;19.36;49.36;99722.29;;;;-47
2019/11/12 04:14:17;;;;;;;2.27;2.07;;;;;;;19.36;49.33;99719.14;;;;-48
2019/11/12 04:17:19;;;;;;;2.12;1.93;;;;;;;19.35;49.35;99719.95;;;;-48
2019/11/12 04:20:17;;;;;;;2.10;1.92;;;;;;;19.36;49.37;99711.58;;;;-48
2019/11/12 04:23:17;;;;;;;2.13;1.94;;;;;;;19.34;49.32;99705.45;;;;-48
2019/11/12 04:26:17;;;;;;;3.98;2.19;;;;;;;19.37;49.45;99705.22;;;;-48
2019/11/12 04:29:17;;;;;;;2.09;1.89;;;;;;;19.41;49.50;99701.70;;;;-49
2019/11/12 04:32:17;;;;;;;2.10;1.90;;;;;;;19.44;49.49;99707.86;;;;-48
2019/11/12 04:35:17;;;;;;;2.97;2.05;;;;;;;19.47;49.62;99702.59;;;;-52
2019/11/12 04:38:17;;;;;;;3.05;2.03;;;;;;;19.49;49.46;99704.66;;;;-50
2019/11/12 04:41:17;;;;;;;2.37;1.85;;;;;;;19.51;49.50;99703.22;;;;-50
2019/11/12 04:44:17;;;;;;;3.27;1.88;;;;;;;19.53;49.44;99702.69;;;;-51
2019/11/12 04:47:17;;;;;;;2.09;1.89;;;;;;;19.54;49.71;99708.91;;;;-50
2019/11/12 04:50:17;;;;;;;2.13;1.93;;;;;;;19.57;49.72;99711.76;;;;-51
2019/11/12 04:53:17;;;;;;;2.21;2.03;;;;;;;19.60;49.71;99711.85;;;;-53
2019/11/12 04:56:17;;;;;;;1.79;1.69;;;;;;;19.62;49.67;99706.83;;;;-51
2019/11/12 04:59:17;;;;;;;1.79;1.65;;;;;;;19.65;49.64;99704.30;;;;-52
2019/11/12 05:02:18;;;;;;;2.00;1.80;;;;;;;19.68;49.65;99708.42;;;;-52
2019/11/12 05:05:17;;;;;;;1.87;1.77;;;;;;;19.71;49.67;99712.88;;;;-51
2019/11/12 05:08:18;;;;;;;2.16;1.96;;;;;;;19.74;49.65;99714.81;;;;-52
2019/11/12 05:11:17;;;;;;;3.13;1.90;;;;;;;19.77;49.64;99710.95;;;;-53
2019/11/12 05:14:17;;;;;;;2.01;1.83;;;;;;;19.81;49.60;99709.23;;;;-52
2019/11/12 05:17:17;;;;;;;2.07;1.85;;;;;;;19.83;49.65;99703.03;;;;-51
2019/11/12 05:20:17;;;;;;;2.55;1.80;;;;;;;19.86;49.62;99694.70;;;;-52
2019/11/12 05:23:17;;;;;;;1.91;1.76;;;;;;;19.88;49.67;99700.16;;;;-51
2019/11/12 05:26:17;;;;;;;1.85;1.74;;;;;;;19.91;49.67;99696.97;;;;-52
2019/11/12 05:29:18;;;;;;;2.51;1.69;;;;;;;19.94;49.69;99696.20;;;;-52
2019/11/12 05:32:17;;;;;;;1.77;1.67;;;;;;;19.95;49.63;99694.75;;;;-52
2019/11/12 05:35:18;;;;;;;1.85;1.69;;;;;;;19.98;49.65;99695.64;;;;-52
2019/11/12 05:38:17;;;;;;;2.01;1.81;;;;;;;20.00;49.61;99703.11;;;;-52
2019/11/12 05:41:17;;;;;;;2.07;1.80;;;;;;;20.02;49.62;99702.88;;;;-52
2019/11/12 05:44:18;;;;;;;1.80;1.70;;;;;;;20.04;49.64;99702.39;;;;-51
2019/11/12 05:47:17;;;;;;;2.13;1.93;;;;;;;20.04;49.62;99704.11;;;;-52
2019/11/12 05:50:17;;;;;;;2.03;1.83;;;;;;;20.07;49.61;99702.15;;;;-51
2019/11/12 05:53:17;;;;;;;1.77;1.67;;;;;;;20.09;49.59;99704.72;;;;-52
2019/11/12 05:56:18;;;;;;;1.98;1.78;;;;;;;20.10;49.65;99702.23;;;;-52
2019/11/12 05:59:17;;;;;;;2.39;1.77;;;;;;;20.12;49.57;99696.20;;;;-51
2019/11/12 06:02:17;;;;;;;1.83;1.73;;;;;;;20.13;49.59;99697.23;;;;-51
2019/11/12 06:05:18;;;;;;;1.85;1.68;;;;;;;20.15;49.59;99684.55;;;;-50
2019/11/12 06:08:17;;;;;;;3.28;1.71;;;;;;;20.15;49.54;99695.61;;;;-50
2019/11/12 06:11:17;;;;;;;1.81;1.71;;;;;;;20.17;49.56;99700.94;;;;-51
2019/11/12 06:14:17;;;;;;;1.80;1.70;;;;;;;20.18;49.47;99701.13;;;;-51
2019/11/12 06:17:17;;;;;;;1.76;1.66;;;;;;;20.19;49.51;99706.87;;;;-52
2019/11/12 06:20:24;;;;;;;1.80;1.69;;;;;;;20.19;49.46;99712.56;;;;-51
2019/11/12 06:23:17;;;;;;;1.77;1.67;;;;;;;20.19;49.46;99706.77;;;;-53
2019/11/12 06:26:17;;;;;;;1.65;1.55;;;;;;;20.20;49.48;99710.98;;;;-52
2019/11/12 06:29:17;;;;;;;1.69;1.59;;;;;;;20.21;49.45;99712.19;;;;-51
2019/11/12 06:32:17;;;;;;;1.70;1.60;;;;;;;20.21;49.37;99711.38;;;;-52
2019/11/12 06:35:17;;;;;;;2.32;1.59;;;;;;;20.22;49.46;99710.81;;;;-50
2019/11/12 06:38:17;;;;;;;1.73;1.63;;;;;;;20.22;49.32;99713.42;;;;-50
2019/11/12 06:41:17;;;;;;;1.74;1.63;;;;;;;20.22;49.39;99713.89;;;;-51
2019/11/12 06:44:17;;;;;;;1.69;1.59;;;;;;;20.23;49.44;99718.31;;;;-50
2019/11/12 06:47:19;;;;;;;1.75;1.65;;;;;;;20.23;49.25;99718.72;;;;-52
2019/11/12 06:50:17;;;;;;;1.91;1.61;;;;;;;20.22;49.38;99718.78;;;;-51
2019/11/12 06:53:17;;;;;;;1.66;1.56;;;;;;;20.23;49.37;99720.73;;;;-50
2019/11/12 06:56:18;;;;;;;1.80;1.70;;;;;;;20.23;49.27;99721.33;;;;-50
2019/11/12 06:59:17;;;;;;;1.69;1.59;;;;;;;20.23;49.37;99722.64;;;;-50
2019/11/12 07:02:18;;;;;;;1.69;1.59;;;;;;;20.23;49.27;99727.61;;;;-51
2019/11/12 07:05:17;;;;;;;1.71;1.53;;;;;;;20.23;49.40;99724.82;;;;-51
2019/11/12 07:08:17;;;;;;;1.71;1.61;;;;;;;20.23;49.35;99719.73;;;;-52
2019/11/12 07:11:43;;;;;;;1.72;1.62;;;;;;;20.22;49.30;99718.63;;;;-52
2019/11/12 07:14:17;;;;;;;1.76;1.50;;;;;;;20.22;49.46;99714.83;;;;-53
2019/11/12 07:17:17;;;;;;;1.69;1.59;;;;;;;20.22;49.35;99708.63;;;;-51
2019/11/12 07:20:17;;;;;;;1.70;1.60;;;;;;;20.22;49.36;99703.50;;;;-52
2019/11/12 07:23:17;;;;;;;1.70;1.60;;;;;;;20.21;49.37;99702.91;;;;-52
2019/11/12 07:26:17;;;;;;;1.60;1.50;;;;;;;20.21;49.34;99701.66;;;;-52
2019/11/12 07:29:17;;;;;;;1.70;1.60;;;;;;;20.21;49.29;99701.23;;;;-52
2019/11/12 07:32:17;;;;;;;1.84;1.67;;;;;;;20.20;49.26;99701.46;;;;-51
2019/11/12 07:35:17;;;;;;;1.75;1.60;;;;;;;20.22;49.24;99697.80;;;;-52
2019/11/12 07:38:17;;;;;;;1.70;1.60;;;;;;;20.22;49.35;99699.17;;;;-52
2019/11/12 08:33:31;;;;;;;6.44;1.59;;;;;;;20.45;49.44;99637.91;;;;-45
2019/11/12 08:36:31;;;;;;;2.47;1.60;;;;;;;20.47;49.53;99641.33;;;;-46
2019/11/12 08:39:31;;;;;;;2.11;1.59;;;;;;;20.49;49.54;99646.88;;;;-48
2019/11/12 08:42:31;;;;;;;3.15;1.63;;;;;;;20.49;49.58;99648.19;;;;-47
2019/11/12 08:45:32;;;;;;;3.02;1.50;;;;;;;20.52;49.59;99650.83;;;;-49
2019/11/12 08:48:46;;;;;;;2.73;1.61;;;;;;;20.55;49.57;99643.02;;;;-48
2019/11/12 08:51:31;;;;;;;2.01;1.60;;;;;;;20.55;49.60;99630.53;;;;-47
2019/11/12 08:54:31;;;;;;;4.15;1.94;;;;;;;20.58;49.58;99623.67;;;;-48
2019/11/12 08:57:31;;;;;;;2.01;1.55;;;;;;;20.58;49.37;99620.05;;;;-48
2019/11/12 09:00:31;;;;;;;2.17;1.73;;;;;;;20.59;49.31;99613.80;;;;-48
2019/11/12 09:03:32;;;;;;;2.59;1.58;;;;;;;20.59;49.27;99618.73;;;;-48
2019/11/12 09:06:32;;;;;;;1.85;1.58;;;;;;;20.59;49.21;99620.17;;;;-48
2019/11/12 09:09:32;;;;;;;1.81;1.46;;;;;;;20.59;49.12;99621.75;;;;-48
2019/11/12 09:12:31;;;;;;;1.74;1.61;;;;;;;20.59;49.05;99619.91;;;;-48
2019/11/12 09:15:31;;;;;;;4.07;1.69;;;;;;;20.60;49.03;99612.72;;;;-44
2019/11/12 09:18:31;;;;;;;2.78;1.69;;;;;;;20.62;49.14;99603.31;;;;-49
2019/11/12 09:21:31;;;;;;;1.76;1.51;;;;;;;20.61;48.84;99590.44;;;;-52
2019/11/12 09:24:31;;;;;;;3.07;1.82;;;;;;;20.55;46.62;99597.59;;;;-47
2019/11/12 09:27:32;;;;;;;12.97;2.63;;;;;;;20.51;44.48;99600.98;;;;-48
2019/11/12 09:33:32;;;;;;;13.44;2.58;;;;;;;20.43;41.86;99600.05;;;;-51
2019/11/12 09:36:31;;;;;;;7.59;2.15;;;;;;;20.39;41.64;99603.98;;;;-49
2019/11/12 09:39:31;;;;;;;5.81;2.17;;;;;;;20.39;40.61;99598.78;;;;-48
2019/11/12 09:42:31;;;;;;;9.58;2.04;;;;;;;20.39;41.96;99599.02;;;;-51
2019/11/12 09:45:31;;;;;;;7.32;2.14;;;;;;;20.40;41.77;99598.10;;;;-48
2019/11/12 09:48:38;;;;;;;6.03;1.89;;;;;;;20.41;42.19;99597.29;;;;-48
2019/11/12 09:51:31;;;;;;;5.11;2.17;;;;;;;20.43;43.27;99605.50;;;;-49
2019/11/12 09:54:31;;;;;;;5.02;1.93;;;;;;;20.43;43.16;99608.18;;;;-61
2019/11/12 09:57:31;;;;;;;5.69;1.96;;;;;;;20.45;43.52;99605.78;;;;-58
2019/11/12 10:00:31;;;;;;;5.97;1.82;;;;;;;20.44;43.64;99602.41;;;;-54
2019/11/12 10:03:31;;;;;;;5.43;2.01;;;;;;;20.44;44.01;99599.41;;;;-50
2019/11/12 10:06:31;;;;;;;3.85;1.87;;;;;;;20.45;44.06;99601.52;;;;-49
2019/11/12 10:09:32;;;;;;;3.87;1.91;;;;;;;20.44;44.14;99604.95;;;;-50
2019/11/12 10:12:31;;;;;;;5.10;1.80;;;;;;;20.44;44.07;99604.28;;;;-47
2019/11/12 10:15:31;;;;;;;3.77;1.91;;;;;;;20.46;44.41;99603.13;;;;-48
2019/11/12 10:18:31;;;;;;;6.01;1.83;;;;;;;20.48;44.01;99604.55;;;;-51
2019/11/12 10:21:31;;;;;;;5.49;1.86;;;;;;;20.50;44.68;99598.80;;;;-52
2019/11/12 10:24:31;;;;;;;3.23;1.82;;;;;;;20.51;44.99;99594.30;;;;-50
2019/11/12 10:27:31;;;;;;;6.64;1.99;;;;;;;20.55;45.51;99581.97;;;;-48
2019/11/12 10:30:31;;;;;;;3.45;1.94;;;;;;;20.56;45.75;99578.23;;;;-47
2019/11/12 10:33:31;;;;;;;2.78;1.71;;;;;;;20.59;46.00;99569.75;;;;-48
2019/11/12 10:36:31;;;;;;;4.70;1.92;;;;;;;20.60;46.07;99564.24;;;;-50
2019/11/12 10:39:31;;;;;;;3.81;1.81;;;;;;;20.63;46.28;99549.89;;;;-50
2019/11/12 10:42:31;;;;;;;4.04;1.87;;;;;;;20.66;46.41;99544.59;;;;-47
2019/11/12 10:45:31;;;;;;;3.26;1.83;;;;;;;20.69;46.54;99549.27;;;;-52
2019/11/12 10:48:31;;;;;;;3.73;1.77;;;;;;;20.72;46.95;99541.63;;;;-51
2019/11/12 10:51:32;;;;;;;3.05;1.81;;;;;;;20.74;46.66;99531.84;;;;-53
2019/11/12 10:54:31;;;;;;;4.33;1.90;;;;;;;20.77;46.69;99528.42;;;;-51
2019/11/12 10:57:31;;;;;;;2.49;1.73;;;;;;;20.79;46.75;99519.55;;;;-51
2019/11/12 11:00:31;;;;;;;2.93;1.70;;;;;;;20.81;46.83;99515.80;;;;-50
2019/11/12 11:03:31;;;;;;;2.23;1.59;;;;;;;20.85;46.76;99508.22;;;;-51
2019/11/12 11:06:31;;;;;;;4.85;1.70;;;;;;;20.88;46.84;99503.09;;;;-50
2019/11/12 11:09:31;;;;;;;2.85;1.64;;;;;;;20.90;46.87;99497.29;;;;-48
2019/11/12 11:12:31;;;;;;;4.14;1.73;;;;;;;20.93;46.90;99496.92;;;;-49
2019/11/12 11:15:31;;;;;;;2.72;1.69;;;;;;;20.89;43.79;99487.87;;;;-48
2019/11/12 11:18:31;;;;;;;5.61;1.96;;;;;;;20.90;44.83;99482.42;;;;-57
2019/11/12 11:21:31;;;;;;;5.79;1.75;;;;;;;20.91;45.28;99483.11;;;;-51
2019/11/12 11:24:31;;;;;;;8.99;1.85;;;;;;;20.96;45.52;99472.48;;;;-47
2019/11/12 11:27:32;;;;;;;7.67;1.83;;;;;;;20.96;45.21;99465.44;;;;-48
2019/11/12 11:30:32;;;;;;;13.04;2.07;;;;;;;20.98;45.86;99464.71;;;;-51
2019/11/12 11:33:32;;;;;;;8.05;1.94;;;;;;;20.96;44.80;99456.38;;;;-50
2019/11/12 11:36:31;;;;;;;8.01;1.95;;;;;;;20.99;45.15;99456.78;;;;-49
2019/11/12 11:39:31;;;;;;;7.07;1.89;;;;;;;20.98;45.36;99453.73;;;;-53
2019/11/12 11:42:31;;;;;;;10.83;2.07;;;;;;;21.01;45.22;99456.39;;;;-47
2019/11/12 11:45:31;;;;;;;5.56;1.76;;;;;;;21.01;45.18;99452.79;;;;-50
2019/11/12 11:48:31;;;;;;;5.64;1.81;;;;;;;21.02;45.02;99442.81;;;;-49
2019/11/12 11:51:31;;;;;;;2.90;1.74;;;;;;;21.04;45.22;99441.84;;;;-47
2019/11/12 11:54:31;;;;;;;5.89;2.05;;;;;;;21.04;44.27;99440.34;;;;-48
2019/11/12 11:57:31;;;;;;;4.22;2.14;;;;;;;21.04;45.28;99440.53;;;;-55
2019/11/12 12:00:31;;;;;;;5.31;1.90;;;;;;;21.05;45.22;99432.30;;;;-49
2019/11/12 12:03:31;;;;;;;4.79;1.61;;;;;;;21.07;45.28;99437.75;;;;-51
2019/11/12 12:06:31;;;;;;;8.08;1.95;;;;;;;21.07;45.72;99432.70;;;;-51
2019/11/12 12:09:31;;;;;;;15.57;2.05;;;;;;;21.08;45.56;99430.92;;;;-50
2019/11/12 12:12:31;;;;;;;6.67;1.83;;;;;;;21.08;44.44;99435.59;;;;-54
2019/11/12 12:15:32;;;;;;;6.73;1.90;;;;;;;21.06;44.76;99438.27;;;;-59
2019/11/12 12:18:31;;;;;;;8.86;2.07;;;;;;;20.96;42.93;99445.70;;;;-54
2019/11/12 12:21:31;;;;;;;4.99;1.80;;;;;;;20.94;43.55;99443.91;;;;-57
2019/11/12 12:24:31;;;;;;;5.01;1.86;;;;;;;20.91;43.47;99432.94;;;;-51
2019/11/12 12:27:31;;;;;;;6.48;1.84;;;;;;;20.93;44.10;99427.88;;;;-50
2019/11/12 12:30:31;;;;;;;5.56;1.79;;;;;;;20.93;44.12;99431.39;;;;-50
2019/11/12 12:33:31;;;;;;;3.95;1.79;;;;;;;20.94;43.85;99441.56;;;;-50
2019/11/12 12:36:31;;;;;;;7.09;1.80;;;;;;;20.94;44.06;99443.58;;;;-51
2019/11/12 12:39:31;;;;;;;4.59;1.93;;;;;;;20.93;43.69;99434.92;;;;-48
2019/11/12 12:42:31;;;;;;;10.76;1.97;;;;;;;20.95;43.93;99437.89;;;;-48
2019/11/12 12:45:31;;;;;;;5.38;1.83;;;;;;;20.95;43.86;99442.25;;;;-51
2019/11/12 12:48:31;;;;;;;2.82;1.55;;;;;;;20.96;43.69;99442.62;;;;-47
2019/11/12 12:51:31;;;;;;;5.05;1.88;;;;;;;20.96;43.80;99444.79;;;;-47
2019/11/12 12:54:31;;;;;;;4.17;1.68;;;;;;;20.98;44.09;99450.98;;;;-46
2019/11/12 12:57:31;;;;;;;5.44;1.76;;;;;;;20.99;43.81;99443.02;;;;-53
2019/11/12 13:00:31;;;;;;;4.40;1.84;;;;;;;21.00;44.01;99441.86;;;;-52
2019/11/12 13:04:08;;;;;;;6.36;1.78;;;;;;;21.02;44.09;99446.53;;;;-50
2019/11/12 13:09:31;;;;;;;4.72;1.63;;;;;;;21.05;44.18;99426.77;;;;-51
2019/11/12 13:12:31;;;;;;;3.93;1.65;;;;;;;21.07;44.31;99422.97;;;;-49
2019/11/12 13:15:31;;;;;;;3.22;1.60;;;;;;;21.13;44.35;99418.20;;;;-49
2019/11/12 13:18:32;;;;;;;5.65;1.67;;;;;;;21.17;44.51;99411.07;;;;-49
2019/11/12 13:21:31;;;;;;;3.49;1.58;;;;;;;21.21;44.69;99402.92;;;;-56
2019/11/12 13:24:31;;;;;;;2.48;1.59;;;;;;;21.23;44.84;99397.16;;;;-56
2019/11/12 13:27:31;;;;;;;3.01;1.53;;;;;;;21.25;44.94;99393.00;;;;-56
2019/11/12 13:30:31;;;;;;;3.27;1.53;;;;;;;21.28;45.01;99388.78;;;;-56
2019/11/12 13:33:31;;;;;;;5.47;1.50;;;;;;;21.31;45.04;99387.92;;;;-56
2019/11/12 13:36:31;;;;;;;4.17;1.53;;;;;;;21.32;45.10;99397.09;;;;-55
2019/11/12 13:39:32;;;;;;;3.58;1.49;;;;;;;21.35;45.19;99403.95;;;;-56
2019/11/12 13:42:31;;;;;;;3.36;1.53;;;;;;;21.36;45.26;99401.92;;;;-55
2019/11/12 13:45:31;;;;;;;3.10;1.49;;;;;;;21.36;45.29;99408.47;;;;-55
2019/11/12 13:48:31;;;;;;;2.31;1.49;;;;;;;21.37;45.31;99403.23;;;;-56
2019/11/12 13:51:31;;;;;;;2.68;1.60;;;;;;;21.35;45.54;99413.28;;;;-58
2019/11/12 13:54:31;;;;;;;5.15;1.50;;;;;;;21.38;45.62;99416.57;;;;-59
2019/11/12 13:57:31;;;;;;;2.95;1.41;;;;;;;21.39;45.79;99420.22;;;;-54
2019/11/12 14:00:31;;;;;;;2.53;1.40;;;;;;;21.40;45.90;99418.39;;;;-59
2019/11/12 14:03:31;;;;;;;1.89;1.49;;;;;;;21.41;45.84;99422.68;;;;-61
2019/11/12 14:06:31;;;;;;;2.44;1.51;;;;;;;21.42;45.99;99421.31;;;;-57
2019/11/12 14:09:31;;;;;;;2.11;1.45;;;;;;;21.43;46.16;99419.19;;;;-56
2019/11/12 14:12:31;;;;;;;1.82;1.47;;;;;;;21.43;45.99;99408.88;;;;-57
2019/11/12 14:15:31;;;;;;;5.13;1.67;;;;;;;21.44;46.31;99403.34;;;;-54
2019/11/12 14:18:31;;;;;;;6.07;1.70;;;;;;;21.46;46.63;99403.32;;;;-58
2019/11/12 14:21:31;;;;;;;4.31;1.59;;;;;;;21.47;46.26;99400.72;;;;-56
2019/11/12 14:24:31;;;;;;;2.59;1.50;;;;;;;21.46;46.32;99394.15;;;;-54
2019/11/12 14:27:31;;;;;;;2.52;1.41;;;;;;;21.49;46.27;99399.34;;;;-56
2019/11/12 14:30:31;;;;;;;3.35;1.49;;;;;;;21.49;46.33;99407.48;;;;-53
2019/11/12 14:33:31;;;;;;;3.85;1.50;;;;;;;21.52;46.30;99419.53;;;;-52
2019/11/12 14:36:31;;;;;;;4.41;1.45;;;;;;;21.54;46.41;99426.56;;;;-51
2019/11/12 14:39:31;;;;;;;2.80;1.44;;;;;;;21.54;46.25;99403.20;;;;-54
2019/11/12 14:42:31;;;;;;;2.48;1.48;;;;;;;21.55;46.48;99414.08;;;;-50
2019/11/12 14:45:31;;;;;;;2.04;1.40;;;;;;;21.56;46.36;99414.67;;;;-53
2019/11/12 14:48:31;;;;;;;3.83;1.36;;;;;;;21.56;46.29;99420.31;;;;-48
2019/11/12 14:51:31;;;;;;;3.13;1.42;;;;;;;21.58;46.31;99425.45;;;;-55
2019/11/12 14:54:31;;;;;;;1.82;1.34;;;;;;;21.58;46.42;99421.56;;;;-62
2019/11/12 14:57:31;;;;;;;4.31;1.43;;;;;;;21.58;46.18;99429.12;;;;-52
2019/11/12 15:00:31;;;;;;;4.05;1.50;;;;;;;21.59;46.28;99435.50;;;;-52
2019/11/12 15:03:31;;;;;;;4.23;1.54;;;;;;;21.58;45.96;99430.91;;;;-48
2019/11/12 15:06:31;;;;;;;3.07;1.40;;;;;;;21.60;46.19;99427.02;;;;-50
2019/11/12 15:09:31;;;;;;;3.87;1.49;;;;;;;21.61;46.27;99436.04;;;;-48
2019/11/12 15:12:31;;;;;;;3.89;1.50;;;;;;;21.61;46.35;99439.33;;;;-57
2019/11/12 15:15:31;;;;;;;5.71;1.60;;;;;;;21.61;46.28;99439.73;;;;-58
2019/11/12 15:18:31;;;;;;;4.41;1.65;;;;;;;21.63;46.32;99431.47;;;;-50
2019/11/12 15:21:31;;;;;;;2.48;1.39;;;;;;;21.64;46.54;99429.57;;;;-50
2019/11/12 15:24:31;;;;;;;2.71;1.49;;;;;;;21.66;46.57;99426.80;;;;-51
2019/11/12 15:27:31;;;;;;;2.25;1.42;;;;;;;21.65;46.51;99434.77;;;;-54
2019/11/12 15:30:31;;;;;;;2.98;1.50;;;;;;;21.67;46.59;99439.61;;;;-53
2019/11/12 15:33:31;;;;;;;2.95;1.51;;;;;;;21.67;46.54;99431.11;;;;-53
2019/11/12 15:36:31;;;;;;;2.47;1.41;;;;;;;21.70;46.73;99430.16;;;;-52
2019/11/12 15:39:32;;;;;;;5.08;1.50;;;;;;;21.70;46.73;99418.73;;;;-57
2019/11/12 15:42:31;;;;;;;3.85;1.37;;;;;;;21.71;46.81;99414.96;;;;-58
2019/11/12 15:45:31;;;;;;;3.07;1.36;;;;;;;21.73;47.01;99413.25;;;;-58
2019/11/12 15:48:31;;;;;;;2.37;1.36;;;;;;;21.73;46.99;99415.27;;;;-57
2019/11/12 15:51:31;;;;;;;1.72;1.29;;;;;;;21.74;46.93;99413.84;;;;-57
2019/11/12 15:54:31;;;;;;;4.56;1.40;;;;;;;21.74;47.06;99407.45;;;;-58
2019/11/12 15:57:31;;;;;;;1.68;1.33;;;;;;;21.77;46.99;99406.67;;;;-54
2019/11/12 16:00:31;;;;;;;2.90;1.40;;;;;;;21.77;46.84;99397.08;;;;-56
2019/11/12 16:03:31;;;;;;;2.17;1.41;;;;;;;21.80;46.91;99400.17;;;;-53
2019/11/12 16:06:31;;;;;;;2.55;1.41;;;;;;;21.80;46.83;99389.68;;;;-58
2019/11/12 16:09:31;;;;;;;1.91;1.37;;;;;;;21.80;46.94;99387.73;;;;-58
2019/11/12 16:12:31;;;;;;;3.67;1.37;;;;;;;21.81;47.09;99382.46;;;;-55
2019/11/12 16:15:31;;;;;;;2.47;1.32;;;;;;;21.85;47.16;99375.89;;;;-55
2019/11/12 16:18:31;;;;;;;2.02;1.30;;;;;;;21.85;47.26;99378.30;;;;-58
2019/11/12 16:21:31;;;;;;;1.85;1.37;;;;;;;21.85;47.13;99368.33;;;;-52
2019/11/12 16:24:31;;;;;;;1.97;1.36;;;;;;;21.85;47.21;99376.81;;;;-56
2019/11/12 16:27:31;;;;;;;2.92;1.40;;;;;;;21.87;47.21;99373.90;;;;-54
2019/11/12 16:30:49;;;;;;;1.85;1.38;;;;;;;21.87;46.99;99376.83;;;;-59
2019/11/12 16:33:31;;;;;;;2.15;1.43;;;;;;;21.86;46.86;99371.88;;;;-59
2019/11/12 16:36:31;;;;;;;2.04;1.29;;;;;;;21.83;46.74;99368.55;;;;-60
2019/11/12 16:39:31;;;;;;;1.53;1.30;;;;;;;21.82;46.76;99367.20;;;;-59
2019/11/12 16:42:31;;;;;;;1.90;1.35;;;;;;;21.81;46.68;99367.00;;;;-60
2019/11/12 16:45:31;;;;;;;1.96;1.47;;;;;;;21.81;46.66;99377.77;;;;-60
2019/11/12 16:48:31;;;;;;;1.64;1.53;;;;;;;21.80;46.60;99375.05;;;;-60
2019/11/12 16:51:31;;;;;;;2.22;1.43;;;;;;;21.80;46.61;99378.92;;;;-60
2019/11/12 16:54:31;;;;;;;2.15;1.40;;;;;;;21.80;46.54;99385.88;;;;-54
2019/11/12 16:57:33;;;;;;;2.68;1.47;;;;;;;21.81;46.78;99384.48;;;;-59
2019/11/12 17:00:31;;;;;;;2.84;1.43;;;;;;;21.82;46.71;99385.50;;;;-56
2019/11/12 17:03:32;;;;;;;1.93;1.37;;;;;;;21.84;46.79;99381.41;;;;-56
2019/11/12 17:06:31;;;;;;;1.95;1.37;;;;;;;21.87;46.87;99385.00;;;;-62
2019/11/12 17:09:31;;;;;;;2.41;1.41;;;;;;;21.86;46.52;99388.50;;;;-53
2019/11/12 17:12:31;;;;;;;7.17;1.75;;;;;;;21.88;46.90;99374.86;;;;-57
2019/11/12 17:15:31;;;;;;;2.61;1.47;;;;;;;21.91;47.06;99373.63;;;;-56
2019/11/12 17:18:31;;;;;;;5.27;1.60;;;;;;;21.96;47.28;99371.61;;;;-53
2019/11/12 17:21:31;;;;;;;6.85;1.69;;;;;;;21.95;46.88;99364.55;;;;-55
2019/11/12 17:24:31;;;;;;;7.09;1.55;;;;;;;21.95;47.09;99357.13;;;;-53
2019/11/12 17:27:31;;;;;;;4.51;1.69;;;;;;;21.95;47.22;99346.64;;;;-55
2019/11/12 17:30:31;;;;;;;2.91;1.59;;;;;;;21.95;47.22;99345.94;;;;-57
2019/11/12 17:33:31;;;;;;;4.33;1.60;;;;;;;21.94;47.15;99346.86;;;;-58
2019/11/12 17:36:31;;;;;;;4.32;1.31;;;;;;;21.94;47.22;99340.16;;;;-54
2019/11/12 17:39:31;;;;;;;5.54;1.47;;;;;;;21.92;47.21;99333.98;;;;-54
2019/11/12 17:42:31;;;;;;;4.42;1.59;;;;;;;21.91;47.22;99330.50;;;;-58
2019/11/12 17:45:31;;;;;;;2.56;1.60;;;;;;;21.90;46.97;99328.73;;;;-54
2019/11/12 17:48:31;;;;;;;5.03;1.50;;;;;;;21.88;46.98;99325.84;;;;-54
2019/11/12 17:51:31;;;;;;;3.25;1.51;;;;;;;21.87;47.06;99325.59;;;;-53
2019/11/12 17:54:31;;;;;;;3.51;1.64;;;;;;;21.85;47.01;99322.20;;;;-53
2019/11/12 17:57:31;;;;;;;3.36;1.51;;;;;;;21.84;46.98;99319.32;;;;-53